sensor_id;sensor_type;location;lat;lon;timestamp;P1;durP1;ratioP1;P2;durP2;ratioP2
71629;SDS011;59479;51.902;8.212;2023-08-24T00:01:10;3.75;;;2.08;;
71629;SDS011;59479;51.902;8.212;2023-08-24T00:03:39;5.65;;;2.00;;
71629;SDS011;59479;51.902;8.212;2023-08-24T00:06:05;4.33;;;1.90;;
71629;SDS011;59479;51.902;8.212;2023-08-24T00:08:31;4.60;;;2.13;;
71629;SDS011;59479;51.902;8.212;2023-08-24T00:10:57;3.47;;;1.90;;
71629;SDS011;59479;51.902;8.212;2023-08-24T00:13:23;7.17;;;2.17;;
71629;SDS011;59479;51.902;8.212;2023-08-24T00:15:48;6.40;;;2.10;;
71629;SDS011;59479;51.902;8.212;2023-08-24T00:18:13;7.10;;;2.33;;
71629;SDS011;59479;51.902;8.212;2023-08-24T00:20:38;4.73;;;2.40;;
71629;SDS011;59479;51.902;8.212;2023-08-24T00:23:04;5.00;;;2.43;;
71629;SDS011;59479;51.902;8.212;2023-08-24T00:25:30;5.87;;;2.30;;
71629;SDS011;59479;51.902;8.212;2023-08-24T00:27:55;5.03;;;2.22;;
71629;SDS011;59479;51.902;8.212;2023-08-24T00:30:21;4.40;;;2.60;;
71629;SDS011;59479;51.902;8.212;2023-08-24T00:32:47;4.10;;;2.30;;
71629;SDS011;59479;51.902;8.212;2023-08-24T00:35:12;5.13;;;2.20;;
71629;SDS011;59479;51.902;8.212;2023-08-24T00:37:38;5.17;;;2.97;;
71629;SDS011;59479;51.902;8.212;2023-08-24T00:40:04;6.22;;;2.90;;
71629;SDS011;59479;51.902;8.212;2023-08-24T00:42:36;4.35;;;2.25;;
71629;SDS011;59479;51.902;8.212;2023-08-24T00:45:06;4.77;;;2.63;;
71629;SDS011;59479;51.902;8.212;2023-08-24T00:47:39;6.88;;;2.80;;
71629;SDS011;59479;51.902;8.212;2023-08-24T00:50:06;6.88;;;2.78;;
71629;SDS011;59479;51.902;8.212;2023-08-24T00:52:33;4.18;;;2.85;;
71629;SDS011;59479;51.902;8.212;2023-08-24T00:54:59;4.22;;;2.58;;
71629;SDS011;59479;51.902;8.212;2023-08-24T00:57:25;5.85;;;2.85;;
71629;SDS011;59479;51.902;8.212;2023-08-24T00:59:52;5.32;;;2.40;;
71629;SDS011;59479;51.902;8.212;2023-08-24T01:02:17;4.47;;;2.67;;
71629;SDS011;59479;51.902;8.212;2023-08-24T01:04:43;4.85;;;2.55;;
71629;SDS011;59479;51.902;8.212;2023-08-24T01:07:11;4.65;;;2.63;;
71629;SDS011;59479;51.902;8.212;2023-08-24T01:09:37;5.07;;;2.73;;
71629;SDS011;59479;51.902;8.212;2023-08-24T01:17:42;5.07;;;2.42;;
71629;SDS011;59479;51.902;8.212;2023-08-24T01:20:09;5.10;;;3.08;;
71629;SDS011;59479;51.902;8.212;2023-08-24T01:22:37;4.53;;;2.53;;
71629;SDS011;59479;51.902;8.212;2023-08-24T01:25:37;3.83;;;2.30;;
71629;SDS011;59479;51.902;8.212;2023-08-24T01:28:13;5.45;;;2.50;;
71629;SDS011;59479;51.902;8.212;2023-08-24T01:30:40;3.65;;;2.13;;
71629;SDS011;59479;51.902;8.212;2023-08-24T01:33:06;4.43;;;2.67;;
71629;SDS011;59479;51.902;8.212;2023-08-24T01:35:36;7.22;;;2.70;;
71629;SDS011;59479;51.902;8.212;2023-08-24T01:38:02;5.50;;;2.90;;
71629;SDS011;59479;51.902;8.212;2023-08-24T01:41:16;5.50;;;2.45;;
71629;SDS011;59479;51.902;8.212;2023-08-24T01:43:28;5.93;;;3.30;;
71629;SDS011;59479;51.902;8.212;2023-08-24T01:45:55;4.78;;;2.92;;
71629;SDS011;59479;51.902;8.212;2023-08-24T01:48:22;5.15;;;3.22;;
71629;SDS011;59479;51.902;8.212;2023-08-24T01:50:50;5.25;;;3.13;;
71629;SDS011;59479;51.902;8.212;2023-08-24T01:53:16;5.07;;;3.40;;
71629;SDS011;59479;51.902;8.212;2023-08-24T01:55:41;4.47;;;2.67;;
71629;SDS011;59479;51.902;8.212;2023-08-24T01:58:08;8.23;;;3.53;;
71629;SDS011;59479;51.902;8.212;2023-08-24T02:00:33;8.90;;;3.70;;
71629;SDS011;59479;51.902;8.212;2023-08-24T02:02:58;4.97;;;3.13;;
71629;SDS011;59479;51.902;8.212;2023-08-24T02:05:24;6.67;;;3.87;;
71629;SDS011;59479;51.902;8.212;2023-08-24T02:07:52;5.75;;;3.60;;
71629;SDS011;59479;51.902;8.212;2023-08-24T02:10:18;6.00;;;3.78;;
71629;SDS011;59479;51.902;8.212;2023-08-24T02:12:43;7.50;;;3.70;;
71629;SDS011;59479;51.902;8.212;2023-08-24T02:15:08;7.90;;;3.53;;
71629;SDS011;59479;51.902;8.212;2023-08-24T02:17:34;6.00;;;3.70;;
71629;SDS011;59479;51.902;8.212;2023-08-24T02:19:59;6.20;;;3.40;;
71629;SDS011;59479;51.902;8.212;2023-08-24T02:22:24;5.10;;;3.50;;
71629;SDS011;59479;51.902;8.212;2023-08-24T02:24:50;5.57;;;3.60;;
71629;SDS011;59479;51.902;8.212;2023-08-24T02:27:16;6.93;;;3.43;;
71629;SDS011;59479;51.902;8.212;2023-08-24T02:29:41;5.80;;;3.35;;
71629;SDS011;59479;51.902;8.212;2023-08-24T02:32:06;4.90;;;2.60;;
71629;SDS011;59479;51.902;8.212;2023-08-24T02:34:31;5.00;;;3.17;;
71629;SDS011;59479;51.902;8.212;2023-08-24T02:36:57;4.50;;;2.77;;
71629;SDS011;59479;51.902;8.212;2023-08-24T02:39:22;5.43;;;3.07;;
71629;SDS011;59479;51.902;8.212;2023-08-24T02:41:48;4.87;;;2.63;;
71629;SDS011;59479;51.902;8.212;2023-08-24T02:44:13;4.65;;;2.80;;
71629;SDS011;59479;51.902;8.212;2023-08-24T02:46:39;5.53;;;3.03;;
71629;SDS011;59479;51.902;8.212;2023-08-24T02:49:04;5.90;;;3.80;;
71629;SDS011;59479;51.902;8.212;2023-08-24T02:51:29;8.73;;;4.13;;
71629;SDS011;59479;51.902;8.212;2023-08-24T02:53:56;5.85;;;3.20;;
71629;SDS011;59479;51.902;8.212;2023-08-24T02:56:21;5.43;;;3.40;;
71629;SDS011;59479;51.902;8.212;2023-08-24T02:58:46;6.00;;;3.53;;
71629;SDS011;59479;51.902;8.212;2023-08-24T03:01:12;10.80;;;3.57;;
71629;SDS011;59479;51.902;8.212;2023-08-24T03:03:37;5.63;;;3.70;;
71629;SDS011;59479;51.902;8.212;2023-08-24T03:06:06;6.10;;;3.72;;
71629;SDS011;59479;51.902;8.212;2023-08-24T03:08:33;5.63;;;4.27;;
71629;SDS011;59479;51.902;8.212;2023-08-24T03:10:59;6.03;;;3.95;;
71629;SDS011;59479;51.902;8.212;2023-08-24T03:13:26;6.93;;;3.92;;
71629;SDS011;59479;51.902;8.212;2023-08-24T03:15:52;6.72;;;4.47;;
71629;SDS011;59479;51.902;8.212;2023-08-24T03:18:17;7.87;;;4.50;;
71629;SDS011;59479;51.902;8.212;2023-08-24T03:20:43;6.53;;;4.67;;
71629;SDS011;59479;51.902;8.212;2023-08-24T03:23:10;7.28;;;4.68;;
71629;SDS011;59479;51.902;8.212;2023-08-24T03:25:36;8.40;;;4.63;;
71629;SDS011;59479;51.902;8.212;2023-08-24T03:28:02;7.15;;;4.50;;
71629;SDS011;59479;51.902;8.212;2023-08-24T03:30:29;8.00;;;4.88;;
71629;SDS011;59479;51.902;8.212;2023-08-24T03:32:54;7.70;;;4.63;;
71629;SDS011;59479;51.902;8.212;2023-08-24T03:35:19;5.67;;;4.00;;
71629;SDS011;59479;51.902;8.212;2023-08-24T03:37:45;6.50;;;4.18;;
71629;SDS011;59479;51.902;8.212;2023-08-24T03:40:11;8.25;;;3.83;;
71629;SDS011;59479;51.902;8.212;2023-08-24T03:42:36;7.17;;;4.60;;
71629;SDS011;59479;51.902;8.212;2023-08-24T03:45:02;5.40;;;3.63;;
71629;SDS011;59479;51.902;8.212;2023-08-24T03:47:28;6.63;;;4.30;;
71629;SDS011;59479;51.902;8.212;2023-08-24T03:49:53;6.53;;;4.47;;
71629;SDS011;59479;51.902;8.212;2023-08-24T03:52:19;8.25;;;3.97;;
71629;SDS011;59479;51.902;8.212;2023-08-24T03:54:44;5.78;;;4.00;;
71629;SDS011;59479;51.902;8.212;2023-08-24T03:57:09;5.97;;;4.23;;
71629;SDS011;59479;51.902;8.212;2023-08-24T03:59:35;5.73;;;4.43;;
71629;SDS011;59479;51.902;8.212;2023-08-24T04:02:00;7.03;;;4.60;;
71629;SDS011;59479;51.902;8.212;2023-08-24T04:04:28;8.05;;;4.95;;
71629;SDS011;59479;51.902;8.212;2023-08-24T04:06:55;6.70;;;4.70;;
71629;SDS011;59479;51.902;8.212;2023-08-24T04:09:20;7.47;;;4.67;;
71629;SDS011;59479;51.902;8.212;2023-08-24T04:11:46;8.13;;;5.80;;
71629;SDS011;59479;51.902;8.212;2023-08-24T04:14:11;8.57;;;4.97;;
71629;SDS011;59479;51.902;8.212;2023-08-24T04:16:36;7.57;;;5.13;;
71629;SDS011;59479;51.902;8.212;2023-08-24T04:19:02;7.63;;;5.13;;
71629;SDS011;59479;51.902;8.212;2023-08-24T04:21:27;7.53;;;4.67;;
71629;SDS011;59479;51.902;8.212;2023-08-24T04:23:52;6.27;;;4.53;;
71629;SDS011;59479;51.902;8.212;2023-08-24T04:26:18;6.10;;;4.10;;
71629;SDS011;59479;51.902;8.212;2023-08-24T04:28:43;7.63;;;4.40;;
71629;SDS011;59479;51.902;8.212;2023-08-24T04:31:08;6.50;;;4.50;;
71629;SDS011;59479;51.902;8.212;2023-08-24T04:33:34;6.38;;;4.07;;
71629;SDS011;59479;51.902;8.212;2023-08-24T04:35:59;6.00;;;3.83;;
71629;SDS011;59479;51.902;8.212;2023-08-24T04:38:25;9.33;;;4.27;;
71629;SDS011;59479;51.902;8.212;2023-08-24T04:40:53;5.80;;;3.70;;
71629;SDS011;59479;51.902;8.212;2023-08-24T04:43:27;6.57;;;4.47;;
71629;SDS011;59479;51.902;8.212;2023-08-24T04:46:10;8.97;;;4.57;;
71629;SDS011;59479;51.902;8.212;2023-08-24T04:48:36;9.33;;;4.97;;
71629;SDS011;59479;51.902;8.212;2023-08-24T04:51:01;7.97;;;4.78;;
71629;SDS011;59479;51.902;8.212;2023-08-24T04:53:27;7.17;;;4.60;;
71629;SDS011;59479;51.902;8.212;2023-08-24T04:55:53;8.63;;;4.88;;
71629;SDS011;59479;51.902;8.212;2023-08-24T04:58:18;6.30;;;4.87;;
71629;SDS011;59479;51.902;8.212;2023-08-24T05:00:44;7.40;;;5.17;;
71629;SDS011;59479;51.902;8.212;2023-08-24T05:03:09;8.50;;;5.47;;
71629;SDS011;59479;51.902;8.212;2023-08-24T05:05:35;9.35;;;5.30;;
71629;SDS011;59479;51.902;8.212;2023-08-24T05:08:02;6.90;;;4.70;;
71629;SDS011;59479;51.902;8.212;2023-08-24T05:10:34;8.20;;;5.10;;
71629;SDS011;59479;51.902;8.212;2023-08-24T05:12:59;8.45;;;4.70;;
71629;SDS011;59479;51.902;8.212;2023-08-24T05:15:25;7.72;;;5.38;;
71629;SDS011;59479;51.902;8.212;2023-08-24T05:17:51;8.20;;;5.00;;
71629;SDS011;59479;51.902;8.212;2023-08-24T05:20:19;9.23;;;5.00;;
71629;SDS011;59479;51.902;8.212;2023-08-24T05:22:45;7.85;;;5.45;;
71629;SDS011;59479;51.902;8.212;2023-08-24T05:25:11;8.80;;;5.70;;
71629;SDS011;59479;51.902;8.212;2023-08-24T05:27:37;8.18;;;6.05;;
71629;SDS011;59479;51.902;8.212;2023-08-24T05:30:02;7.87;;;5.47;;
71629;SDS011;59479;51.902;8.212;2023-08-24T05:32:29;9.95;;;6.00;;
71629;SDS011;59479;51.902;8.212;2023-08-24T05:34:54;11.23;;;6.00;;
71629;SDS011;59479;51.902;8.212;2023-08-24T05:37:19;9.70;;;6.20;;
71629;SDS011;59479;51.902;8.212;2023-08-24T05:39:44;8.23;;;6.27;;
71629;SDS011;59479;51.902;8.212;2023-08-24T05:42:10;8.60;;;6.53;;
71629;SDS011;59479;51.902;8.212;2023-08-24T05:44:35;10.47;;;6.43;;
71629;SDS011;59479;51.902;8.212;2023-08-24T05:47:00;9.00;;;6.90;;
71629;SDS011;59479;51.902;8.212;2023-08-24T05:49:26;11.47;;;6.37;;
71629;SDS011;59479;51.902;8.212;2023-08-24T05:51:51;11.83;;;6.83;;
71629;SDS011;59479;51.902;8.212;2023-08-24T05:54:17;11.43;;;6.30;;
71629;SDS011;59479;51.902;8.212;2023-08-24T05:56:43;10.32;;;6.68;;
71629;SDS011;59479;51.902;8.212;2023-08-24T05:59:12;10.52;;;7.18;;
71629;SDS011;59479;51.902;8.212;2023-08-24T06:01:38;9.00;;;6.45;;
71629;SDS011;59479;51.902;8.212;2023-08-24T06:04:04;9.67;;;6.97;;
71629;SDS011;59479;51.902;8.212;2023-08-24T06:06:33;12.45;;;7.50;;
71629;SDS011;59479;51.902;8.212;2023-08-24T06:08:58;10.93;;;7.23;;
71629;SDS011;59479;51.902;8.212;2023-08-24T06:11:23;9.40;;;7.03;;
71629;SDS011;59479;51.902;8.212;2023-08-24T06:13:49;10.93;;;7.63;;
71629;SDS011;59479;51.902;8.212;2023-08-24T06:16:17;13.53;;;7.27;;
71629;SDS011;59479;51.902;8.212;2023-08-24T06:18:42;9.67;;;6.87;;
71629;SDS011;59479;51.902;8.212;2023-08-24T06:21:07;9.93;;;7.50;;
71629;SDS011;59479;51.902;8.212;2023-08-24T06:23:33;10.63;;;7.33;;
71629;SDS011;59479;51.902;8.212;2023-08-24T06:25:58;11.80;;;7.60;;
71629;SDS011;59479;51.902;8.212;2023-08-24T06:28:24;13.10;;;8.27;;
71629;SDS011;59479;51.902;8.212;2023-08-24T06:30:49;11.77;;;7.17;;
71629;SDS011;59479;51.902;8.212;2023-08-24T06:33:16;12.73;;;7.30;;
71629;SDS011;59479;51.902;8.212;2023-08-24T06:35:42;10.70;;;7.63;;
71629;SDS011;59479;51.902;8.212;2023-08-24T06:38:07;10.63;;;7.50;;
71629;SDS011;59479;51.902;8.212;2023-08-24T06:40:32;12.85;;;8.07;;
71629;SDS011;59479;51.902;8.212;2023-08-24T06:42:58;11.17;;;7.10;;
71629;SDS011;59479;51.902;8.212;2023-08-24T06:45:23;11.10;;;7.70;;
71629;SDS011;59479;51.902;8.212;2023-08-24T06:47:48;16.63;;;7.67;;
71629;SDS011;59479;51.902;8.212;2023-08-24T06:50:14;16.40;;;7.87;;
71629;SDS011;59479;51.902;8.212;2023-08-24T06:52:40;11.90;;;8.20;;
71629;SDS011;59479;51.902;8.212;2023-08-24T06:55:07;25.27;;;8.40;;
71629;SDS011;59479;51.902;8.212;2023-08-24T06:57:33;11.35;;;7.93;;
71629;SDS011;59479;51.902;8.212;2023-08-24T06:59:59;13.77;;;7.17;;
71629;SDS011;59479;51.902;8.212;2023-08-24T07:02:25;11.67;;;7.93;;
71629;SDS011;59479;51.902;8.212;2023-08-24T07:04:50;9.35;;;6.88;;
71629;SDS011;59479;51.902;8.212;2023-08-24T07:07:16;11.67;;;7.23;;
71629;SDS011;59479;51.902;8.212;2023-08-24T07:09:41;11.47;;;7.83;;
71629;SDS011;59479;51.902;8.212;2023-08-24T07:12:06;10.77;;;7.97;;
71629;SDS011;59479;51.902;8.212;2023-08-24T07:14:35;9.93;;;8.15;;
71629;SDS011;59479;51.902;8.212;2023-08-24T07:17:03;10.27;;;7.60;;
71629;SDS011;59479;51.902;8.212;2023-08-24T07:19:28;9.93;;;6.90;;
71629;SDS011;59479;51.902;8.212;2023-08-24T07:21:53;11.47;;;8.10;;
71629;SDS011;59479;51.902;8.212;2023-08-24T07:24:19;15.93;;;7.43;;
71629;SDS011;59479;51.902;8.212;2023-08-24T07:26:45;11.30;;;6.90;;
71629;SDS011;59479;51.902;8.212;2023-08-24T07:29:11;12.63;;;6.93;;
71629;SDS011;59479;51.902;8.212;2023-08-24T07:31:36;9.90;;;6.63;;
71629;SDS011;59479;51.902;8.212;2023-08-24T07:34:02;10.83;;;7.27;;
71629;SDS011;59479;51.902;8.212;2023-08-24T07:36:28;9.93;;;7.53;;
71629;SDS011;59479;51.902;8.212;2023-08-24T07:38:54;9.53;;;7.40;;
71629;SDS011;59479;51.902;8.212;2023-08-24T07:41:19;10.80;;;7.27;;
71629;SDS011;59479;51.902;8.212;2023-08-24T07:43:44;8.53;;;6.83;;
71629;SDS011;59479;51.902;8.212;2023-08-24T07:46:09;10.02;;;7.20;;
71629;SDS011;59479;51.902;8.212;2023-08-24T07:48:35;9.48;;;6.95;;
71629;SDS011;59479;51.902;8.212;2023-08-24T07:51:01;8.93;;;6.90;;
71629;SDS011;59479;51.902;8.212;2023-08-24T07:53:26;11.07;;;6.67;;
71629;SDS011;59479;51.902;8.212;2023-08-24T07:55:52;10.30;;;6.97;;
71629;SDS011;59479;51.902;8.212;2023-08-24T07:58:19;9.05;;;6.35;;
71629;SDS011;59479;51.902;8.212;2023-08-24T08:00:44;10.13;;;7.00;;
71629;SDS011;59479;51.902;8.212;2023-08-24T08:03:09;11.43;;;7.80;;
71629;SDS011;59479;51.902;8.212;2023-08-24T08:05:34;9.32;;;6.05;;
71629;SDS011;59479;51.902;8.212;2023-08-24T08:08:00;11.00;;;6.57;;
71629;SDS011;59479;51.902;8.212;2023-08-24T08:10:25;10.57;;;6.47;;
71629;SDS011;59479;51.902;8.212;2023-08-24T08:12:51;10.37;;;7.13;;
71629;SDS011;59479;51.902;8.212;2023-08-24T08:15:16;9.30;;;6.87;;
71629;SDS011;59479;51.902;8.212;2023-08-24T08:17:42;11.20;;;6.90;;
71629;SDS011;59479;51.902;8.212;2023-08-24T08:20:07;8.73;;;6.50;;
71629;SDS011;59479;51.902;8.212;2023-08-24T08:22:33;7.93;;;6.27;;
71629;SDS011;59479;51.902;8.212;2023-08-24T08:25:03;11.75;;;6.68;;
71629;SDS011;59479;51.902;8.212;2023-08-24T08:27:28;13.70;;;6.57;;
71629;SDS011;59479;51.902;8.212;2023-08-24T08:29:54;9.52;;;6.95;;
71629;SDS011;59479;51.902;8.212;2023-08-24T08:32:19;10.23;;;6.60;;
71629;SDS011;59479;51.902;8.212;2023-08-24T08:34:44;9.07;;;6.37;;
71629;SDS011;59479;51.902;8.212;2023-08-24T08:37:10;7.57;;;6.00;;
71629;SDS011;59479;51.902;8.212;2023-08-24T08:39:35;9.90;;;6.07;;
71629;SDS011;59479;51.902;8.212;2023-08-24T08:42:01;8.98;;;6.25;;
71629;SDS011;59479;51.902;8.212;2023-08-24T08:44:29;8.57;;;6.33;;
71629;SDS011;59479;51.902;8.212;2023-08-24T08:46:59;9.15;;;5.97;;
71629;SDS011;59479;51.902;8.212;2023-08-24T08:49:24;8.80;;;6.03;;
71629;SDS011;59479;51.902;8.212;2023-08-24T08:51:50;9.90;;;6.07;;
71629;SDS011;59479;51.902;8.212;2023-08-24T08:54:16;8.45;;;5.68;;
71629;SDS011;59479;51.902;8.212;2023-08-24T08:56:42;13.10;;;6.10;;
71629;SDS011;59479;51.902;8.212;2023-08-24T08:59:08;12.18;;;6.28;;
71629;SDS011;59479;51.902;8.212;2023-08-24T09:01:36;7.50;;;5.43;;
71629;SDS011;59479;51.902;8.212;2023-08-24T09:04:02;9.32;;;5.72;;
71629;SDS011;59479;51.902;8.212;2023-08-24T09:06:28;7.85;;;5.70;;
71629;SDS011;59479;51.902;8.212;2023-08-24T09:08:53;10.82;;;5.82;;
71629;SDS011;59479;51.902;8.212;2023-08-24T09:11:19;7.77;;;5.60;;
71629;SDS011;59479;51.902;8.212;2023-08-24T09:13:45;7.85;;;5.43;;
71629;SDS011;59479;51.902;8.212;2023-08-24T09:16:10;9.33;;;5.23;;
71629;SDS011;59479;51.902;8.212;2023-08-24T09:18:41;7.93;;;5.43;;
71629;SDS011;59479;51.902;8.212;2023-08-24T09:21:09;9.75;;;5.40;;
71629;SDS011;59479;51.902;8.212;2023-08-24T09:23:37;7.85;;;5.32;;
71629;SDS011;59479;51.902;8.212;2023-08-24T09:26:03;8.05;;;5.68;;
71629;SDS011;59479;51.902;8.212;2023-08-24T09:28:30;8.70;;;5.47;;
71629;SDS011;59479;51.902;8.212;2023-08-24T09:30:55;7.32;;;5.65;;
71629;SDS011;59479;51.902;8.212;2023-08-24T09:33:21;7.30;;;5.53;;
71629;SDS011;59479;51.902;8.212;2023-08-24T09:35:54;9.77;;;5.53;;
71629;SDS011;59479;51.902;8.212;2023-08-24T09:38:23;8.95;;;5.00;;
71629;SDS011;59479;51.902;8.212;2023-08-24T09:40:52;7.73;;;4.73;;
71629;SDS011;59479;51.902;8.212;2023-08-24T09:43:18;9.35;;;5.38;;
71629;SDS011;59479;51.902;8.212;2023-08-24T09:45:53;9.27;;;5.00;;
71629;SDS011;59479;51.902;8.212;2023-08-24T09:48:22;6.53;;;4.80;;
71629;SDS011;59479;51.902;8.212;2023-08-24T09:50:51;8.95;;;4.53;;
71629;SDS011;59479;51.902;8.212;2023-08-24T09:53:20;7.40;;;4.22;;
71629;SDS011;59479;51.902;8.212;2023-08-24T09:55:54;7.72;;;4.10;;
71629;SDS011;59479;51.902;8.212;2023-08-24T09:58:27;8.40;;;4.13;;
71629;SDS011;59479;51.902;8.212;2023-08-24T10:00:53;6.50;;;4.05;;
71629;SDS011;59479;51.902;8.212;2023-08-24T10:03:20;6.72;;;3.63;;
71629;SDS011;59479;51.902;8.212;2023-08-24T10:05:54;5.97;;;3.90;;
71629;SDS011;59479;51.902;8.212;2023-08-24T10:08:21;5.35;;;3.30;;
71629;SDS011;59479;51.902;8.212;2023-08-24T10:10:52;5.05;;;3.25;;
71629;SDS011;59479;51.902;8.212;2023-08-24T10:16:27;6.35;;;3.30;;
71629;SDS011;59479;51.902;8.212;2023-08-24T10:18:54;6.90;;;3.08;;
71629;SDS011;59479;51.902;8.212;2023-08-24T10:21:20;5.63;;;2.85;;
71629;SDS011;59479;51.902;8.212;2023-08-24T10:23:50;5.20;;;3.08;;
71629;SDS011;59479;51.902;8.212;2023-08-24T10:26:17;6.05;;;3.20;;
71629;SDS011;59479;51.902;8.212;2023-08-24T10:28:43;4.45;;;2.80;;
71629;SDS011;59479;51.902;8.212;2023-08-24T10:31:10;5.45;;;2.78;;
71629;SDS011;59479;51.902;8.212;2023-08-24T10:33:36;6.13;;;3.07;;
71629;SDS011;59479;51.902;8.212;2023-08-24T10:36:04;3.90;;;2.53;;
71629;SDS011;59479;51.902;8.212;2023-08-24T10:38:31;4.97;;;2.63;;
71629;SDS011;59479;51.902;8.212;2023-08-24T10:41:03;6.50;;;2.83;;
71629;SDS011;59479;51.902;8.212;2023-08-24T10:43:29;5.13;;;2.60;;
71629;SDS011;59479;51.902;8.212;2023-08-24T10:45:58;4.43;;;2.60;;
71629;SDS011;59479;51.902;8.212;2023-08-24T10:48:28;7.32;;;2.60;;
71629;SDS011;59479;51.902;8.212;2023-08-24T10:53:44;5.43;;;2.47;;
71629;SDS011;59479;51.902;8.212;2023-08-24T10:56:13;4.68;;;2.63;;
71629;SDS011;59479;51.902;8.212;2023-08-24T10:58:40;4.70;;;2.83;;
71629;SDS011;59479;51.902;8.212;2023-08-24T11:01:06;4.55;;;2.55;;
71629;SDS011;59479;51.902;8.212;2023-08-24T11:03:31;3.90;;;2.10;;
71629;SDS011;59479;51.902;8.212;2023-08-24T11:06:00;5.68;;;2.55;;
71629;SDS011;59479;51.902;8.212;2023-08-24T11:08:43;5.00;;;2.50;;
71629;SDS011;59479;51.902;8.212;2023-08-24T11:11:22;6.55;;;2.47;;
71629;SDS011;59479;51.902;8.212;2023-08-24T11:14:23;5.20;;;2.60;;
71629;SDS011;59479;51.902;8.212;2023-08-24T11:16:45;6.07;;;2.75;;
71629;SDS011;59479;51.902;8.212;2023-08-24T11:19:11;4.85;;;2.63;;
71629;SDS011;59479;51.902;8.212;2023-08-24T11:21:40;4.28;;;2.67;;
71629;SDS011;59479;51.902;8.212;2023-08-24T11:24:07;4.13;;;2.28;;
71629;SDS011;59479;51.902;8.212;2023-08-24T11:26:34;4.17;;;1.97;;
71629;SDS011;59479;51.902;8.212;2023-08-24T11:29:00;3.83;;;1.98;;
71629;SDS011;59479;51.902;8.212;2023-08-24T11:31:30;6.07;;;2.13;;
71629;SDS011;59479;51.902;8.212;2023-08-24T11:33:55;5.13;;;2.73;;
71629;SDS011;59479;51.902;8.212;2023-08-24T11:36:21;4.43;;;2.47;;
71629;SDS011;59479;51.902;8.212;2023-08-24T11:38:48;4.50;;;2.20;;
71629;SDS011;59479;51.902;8.212;2023-08-24T11:41:17;5.40;;;2.60;;
71629;SDS011;59479;51.902;8.212;2023-08-24T11:43:43;4.05;;;2.13;;
71629;SDS011;59479;51.902;8.212;2023-08-24T11:46:11;4.63;;;2.40;;
71629;SDS011;59479;51.902;8.212;2023-08-24T11:48:37;5.00;;;2.22;;
71629;SDS011;59479;51.902;8.212;2023-08-24T11:51:06;3.78;;;2.03;;
71629;SDS011;59479;51.902;8.212;2023-08-24T11:53:36;4.40;;;2.07;;
71629;SDS011;59479;51.902;8.212;2023-08-24T11:56:02;4.53;;;1.77;;
71629;SDS011;59479;51.902;8.212;2023-08-24T11:58:27;5.70;;;2.10;;
71629;SDS011;59479;51.902;8.212;2023-08-24T12:00:53;6.27;;;2.60;;
71629;SDS011;59479;51.902;8.212;2023-08-24T12:03:18;4.17;;;2.00;;
71629;SDS011;59479;51.902;8.212;2023-08-24T12:05:44;3.70;;;2.00;;
71629;SDS011;59479;51.902;8.212;2023-08-24T12:08:10;6.28;;;2.00;;
71629;SDS011;59479;51.902;8.212;2023-08-24T12:10:41;4.18;;;2.08;;
71629;SDS011;59479;51.902;8.212;2023-08-24T12:13:07;4.32;;;1.85;;
71629;SDS011;59479;51.902;8.212;2023-08-24T12:15:36;5.00;;;2.27;;
71629;SDS011;59479;51.902;8.212;2023-08-24T12:18:11;5.95;;;2.50;;
71629;SDS011;59479;51.902;8.212;2023-08-24T12:20:38;6.43;;;2.40;;
71629;SDS011;59479;51.902;8.212;2023-08-24T12:23:05;4.43;;;2.03;;
71629;SDS011;59479;51.902;8.212;2023-08-24T12:25:35;3.72;;;2.08;;
71629;SDS011;59479;51.902;8.212;2023-08-24T12:28:11;3.83;;;1.83;;
71629;SDS011;59479;51.902;8.212;2023-08-24T12:33:20;3.97;;;2.10;;
71629;SDS011;59479;51.902;8.212;2023-08-24T12:35:46;4.80;;;2.20;;
71629;SDS011;59479;51.902;8.212;2023-08-24T12:38:12;6.00;;;2.50;;
71629;SDS011;59479;51.902;8.212;2023-08-24T12:40:37;4.70;;;2.13;;
71629;SDS011;59479;51.902;8.212;2023-08-24T12:43:03;4.00;;;2.03;;
71629;SDS011;59479;51.902;8.212;2023-08-24T12:45:28;3.83;;;2.22;;
71629;SDS011;59479;51.902;8.212;2023-08-24T12:47:54;5.55;;;2.15;;
71629;SDS011;59479;51.902;8.212;2023-08-24T12:50:19;4.10;;;1.90;;
71629;SDS011;59479;51.902;8.212;2023-08-24T12:52:44;4.27;;;1.80;;
71629;SDS011;59479;51.902;8.212;2023-08-24T12:55:09;4.17;;;2.30;;
71629;SDS011;59479;51.902;8.212;2023-08-24T12:57:35;4.57;;;2.07;;
71629;SDS011;59479;51.902;8.212;2023-08-24T13:00:00;4.77;;;1.83;;
71629;SDS011;59479;51.902;8.212;2023-08-24T13:02:26;4.85;;;2.08;;
71629;SDS011;59479;51.902;8.212;2023-08-24T13:04:51;4.70;;;2.20;;
71629;SDS011;59479;51.902;8.212;2023-08-24T13:07:16;4.10;;;2.20;;
71629;SDS011;59479;51.902;8.212;2023-08-24T13:09:42;3.33;;;1.70;;
71629;SDS011;59479;51.902;8.212;2023-08-24T13:12:07;3.83;;;2.07;;
71629;SDS011;59479;51.902;8.212;2023-08-24T13:14:32;4.17;;;1.87;;
71629;SDS011;59479;51.902;8.212;2023-08-24T13:16:58;5.90;;;2.20;;
71629;SDS011;59479;51.902;8.212;2023-08-24T13:19:23;3.57;;;2.10;;
71629;SDS011;59479;51.902;8.212;2023-08-24T13:21:48;4.60;;;2.33;;
71629;SDS011;59479;51.902;8.212;2023-08-24T13:24:14;5.20;;;2.43;;
71629;SDS011;59479;51.902;8.212;2023-08-24T13:26:39;4.40;;;1.90;;
71629;SDS011;59479;51.902;8.212;2023-08-24T13:29:04;4.60;;;1.80;;
71629;SDS011;59479;51.902;8.212;2023-08-24T13:31:30;6.53;;;2.00;;
71629;SDS011;59479;51.902;8.212;2023-08-24T13:33:55;4.33;;;1.90;;
71629;SDS011;59479;51.902;8.212;2023-08-24T13:36:20;4.60;;;1.80;;
71629;SDS011;59479;51.902;8.212;2023-08-24T13:38:46;4.67;;;1.80;;
71629;SDS011;59479;51.902;8.212;2023-08-24T13:41:12;3.60;;;2.05;;
71629;SDS011;59479;51.902;8.212;2023-08-24T13:43:37;4.67;;;2.20;;
71629;SDS011;59479;51.902;8.212;2023-08-24T13:46:04;6.55;;;2.10;;
71629;SDS011;59479;51.902;8.212;2023-08-24T13:48:30;3.43;;;2.00;;
71629;SDS011;59479;51.902;8.212;2023-08-24T13:50:58;3.88;;;2.15;;
71629;SDS011;59479;51.902;8.212;2023-08-24T13:53:24;3.43;;;1.83;;
71629;SDS011;59479;51.902;8.212;2023-08-24T13:55:49;5.10;;;1.90;;
71629;SDS011;59479;51.902;8.212;2023-08-24T13:58:14;5.27;;;1.67;;
71629;SDS011;59479;51.902;8.212;2023-08-24T14:00:40;3.77;;;1.80;;
71629;SDS011;59479;51.902;8.212;2023-08-24T14:03:05;4.07;;;1.90;;
71629;SDS011;59479;51.902;8.212;2023-08-24T14:05:30;4.43;;;2.00;;
71629;SDS011;59479;51.902;8.212;2023-08-24T14:07:56;3.17;;;1.60;;
71629;SDS011;59479;51.902;8.212;2023-08-24T14:10:21;3.87;;;1.87;;
71629;SDS011;59479;51.902;8.212;2023-08-24T14:12:46;3.77;;;2.20;;
71629;SDS011;59479;51.902;8.212;2023-08-24T14:15:12;4.53;;;1.80;;
71629;SDS011;59479;51.902;8.212;2023-08-24T14:17:37;5.97;;;2.43;;
71629;SDS011;59479;51.902;8.212;2023-08-24T14:20:02;4.37;;;1.90;;
71629;SDS011;59479;51.902;8.212;2023-08-24T14:22:29;4.97;;;2.17;;
71629;SDS011;59479;51.902;8.212;2023-08-24T14:24:54;4.93;;;1.90;;
71629;SDS011;59479;51.902;8.212;2023-08-24T14:27:19;5.00;;;2.10;;
71629;SDS011;59479;51.902;8.212;2023-08-24T14:29:45;5.55;;;2.42;;
71629;SDS011;59479;51.902;8.212;2023-08-24T14:32:10;4.88;;;1.63;;
71629;SDS011;59479;51.902;8.212;2023-08-24T14:34:35;4.73;;;2.00;;
71629;SDS011;59479;51.902;8.212;2023-08-24T14:37:01;3.63;;;2.03;;
71629;SDS011;59479;51.902;8.212;2023-08-24T14:39:26;5.07;;;2.20;;
71629;SDS011;59479;51.902;8.212;2023-08-24T14:41:51;4.90;;;2.13;;
71629;SDS011;59479;51.902;8.212;2023-08-24T14:44:17;4.20;;;1.80;;
71629;SDS011;59479;51.902;8.212;2023-08-24T14:46:42;4.07;;;2.10;;
71629;SDS011;59479;51.902;8.212;2023-08-24T14:49:07;3.67;;;1.87;;
71629;SDS011;59479;51.902;8.212;2023-08-24T14:51:33;5.20;;;2.20;;
71629;SDS011;59479;51.902;8.212;2023-08-24T14:53:59;4.47;;;1.90;;
71629;SDS011;59479;51.902;8.212;2023-08-24T14:56:24;4.37;;;2.03;;